Time;durP1;ratioP1;P1;durP2;ratioP2;P2;SDS_P1;SDS_P2;PMS_P1;PMS_P2;Temp;Humidity;BMP_temperature;BMP_pressure;BME280_temperature;BME280_humidity;BME280_pressure;Samples;Min_cycle;Max_cycle;Signal;HPM_P1;HPM_P2
2024/01/19 06:44:06;;;;;;;11.10;6.55;;;;;;;;;;10666102;27;20358;-81
2024/01/19 06:49:07;;;;;;;18.80;10.38;;;;;;;;;;10625396;28;20028;-81
2024/01/19 06:54:09;;;;;;;31.13;17.73;;;;;;;;;;10626943;28;20095;-86
2024/01/19 06:59:10;;;;;;;16.02;9.65;;;;;;;;;;10633422;28;20043;-86
2024/01/19 07:04:11;;;;;;;20.60;12.27;;;;;;;;;;10636395;28;20024;-86
2024/01/19 07:09:12;;;;;;;12.55;7.72;;;;;;;;;;10666438;28;20040;-86
2024/01/19 07:14:13;;;;;;;14.82;10.38;;;;;;;;;;10654186;28;20383;-86
2024/01/19 07:19:14;;;;;;;13.00;8.93;;;;;;;;;;10622717;28;20475;-86
2024/01/19 07:24:16;;;;;;;18.52;13.00;;;;;;;;;;10620588;28;20123;-85
2024/01/19 07:29:18;;;;;;;15.25;10.48;;;;;;;;;;10620583;28;20024;-85
2024/01/19 07:34:19;;;;;;;13.00;9.00;;;;;;;;;;10624929;27;20118;-85
2024/01/19 07:39:23;;;;;;;;;;;;;;;;;;10618585;28;20497;-85
2024/01/19 07:44:24;;;;;;;10.32;7.65;;;;;;;;;;10619773;28;20412;-85
2024/01/19 07:49:25;;;;;;;12.85;8.48;;;;;;;;;;10621388;28;20091;-85
2024/01/19 07:54:26;;;;;;;12.15;8.73;;;;;;;;;;10598394;28;20020;-86
2024/01/19 07:59:27;;;;;;;11.05;8.13;;;;;;;;;;10596182;28;20030;-86
2024/01/19 08:04:28;;;;;;;12.48;8.95;;;;;;;;;;10598290;28;20054;-85
2024/01/19 08:09:29;;;;;;;13.82;8.88;;;;;;;;;;10594729;28;20030;-87
2024/01/19 08:14:42;;;;;;;13.57;8.60;;;;;;;;;;10593165;28;20131;-84
2024/01/19 08:19:47;;;;;;;12.40;8.27;;;;;;;;;;10597313;28;20053;-83
2024/01/19 08:24:55;;;;;;;11.63;8.63;;;;;;;;;;10599303;28;20043;-83
2024/01/19 08:29:56;;;;;;;13.05;10.05;;;;;;;;;;10596848;28;20020;-83
2024/01/19 08:34:58;;;;;;;11.73;7.95;;;;;;;;;;10596763;28;20049;-83
2024/01/19 08:40:00;;;;;;;11.57;8.82;;;;;;;;;;10595344;28;20035;-83
2024/01/19 08:45:02;;;;;;;12.25;8.35;;;;;;;;;;10591959;28;20034;-82
2024/01/19 08:50:05;;;;;;;;;;;;;;;;;;10601851;28;20080;-83
2024/01/19 08:55:10;;;;;;;12.32;9.38;;;;;;;;;;10593294;28;19903;-82
2024/01/19 09:00:13;;;;;;;12.23;8.50;;;;;;;;;;10589777;28;20046;-84
2024/01/19 09:05:22;;;;;;;10.02;7.07;;;;;;;;;;10603189;27;20028;-81
2024/01/19 09:10:29;;;;;;;11.57;8.48;;;;;;;;;;10630665;28;20073;-82
2024/01/19 09:15:30;;;;;;;10.35;7.15;;;;;;;;;;10592808;28;20030;-82
2024/01/19 09:20:34;;;;;;;11.25;7.35;;;;;;;;;;10595613;28;20054;-84
2024/01/19 09:25:38;;;;;;;11.45;8.02;;;;;;;;;;10597401;28;20029;-83
2024/01/19 09:30:40;;;;;;;12.20;8.65;;;;;;;;;;10600465;28;20038;-85
2024/01/19 09:35:41;;;;;;;10.98;7.55;;;;;;;;;;10584934;28;20043;-84
2024/01/19 09:40:45;;;;;;;9.85;6.47;;;;;;;;;;10606075;28;20100;-82
2024/01/19 09:45:51;;;;;;;10.65;7.47;;;;;;;;;;10618615;28;20027;-83
2024/01/19 09:50:58;;;;;;;12.00;9.30;;;;;;;;;;10595589;28;20079;-83
2024/01/19 09:56:02;;;;;;;13.48;9.48;;;;;;;;;;10593496;28;20054;-83
2024/01/19 10:01:31;;;;;;;13.40;7.57;;;;;;;;;;10589582;28;20028;-83
2024/01/19 10:06:38;;;;;;;14.45;10.15;;;;;;;;;;10591510;28;20057;-83
2024/01/19 10:11:41;;;;;;;17.23;11.60;;;;;;;;;;10592536;28;20455;-83
2024/01/19 10:16:44;;;;;;;13.05;9.23;;;;;;;;;;10597416;28;20031;-82
2024/01/19 10:21:47;;;;;;;13.63;9.15;;;;;;;;;;10591761;28;20058;-83
2024/01/19 10:26:57;;;;;;;22.15;17.33;;;;;;;;;;10590695;28;20096;-82
2024/01/19 10:32:05;;;;;;;13.55;9.90;;;;;;;;;;10589385;28;20035;-83
2024/01/19 10:37:08;;;;;;;17.58;13.35;;;;;;;;;;10589657;28;20088;-82
2024/01/19 10:42:15;;;;;;;15.75;11.80;;;;;;;;;;10589366;28;20046;-82
2024/01/19 10:47:22;;;;;;;26.00;17.95;;;;;;;;;;10591274;28;20032;-82
2024/01/19 10:52:24;;;;;;;15.13;11.13;;;;;;;;;;10591488;28;20054;-82
2024/01/19 10:57:25;;;;;;;13.60;9.43;;;;;;;;;;10599921;28;20028;-82
2024/01/19 11:02:26;;;;;;;16.42;12.05;;;;;;;;;;10613331;28;20035;-81
2024/01/19 11:07:27;;;;;;;13.70;9.98;;;;;;;;;;10592221;28;20051;-82
2024/01/19 11:12:29;;;;;;;16.40;12.00;;;;;;;;;;10588505;28;20073;-83
2024/01/19 11:17:31;;;;;;;17.75;12.65;;;;;;;;;;10585374;28;20111;-82
2024/01/19 11:22:34;;;;;;;16.42;12.45;;;;;;;;;;10585055;28;20024;-81
2024/01/19 11:27:41;;;;;;;24.70;18.58;;;;;;;;;;10595211;28;20039;-81
2024/01/19 11:32:49;;;;;;;20.33;13.75;;;;;;;;;;10598163;28;20041;-83
2024/01/19 11:37:50;;;;;;;17.02;11.85;;;;;;;;;;10596182;28;20395;-85
2024/01/19 11:43:11;;;;;;;13.15;10.00;;;;;;;;;;10596915;28;20123;-83
2024/01/19 11:48:12;;;;;;;;;;;;;;;;;;10600181;28;20024;-81
2024/01/19 11:53:14;;;;;;;19.27;13.88;;;;;;;;;;10600029;28;19914;-83
2024/01/19 11:58:39;;;;;;;12.75;9.93;;;;;;;;;;10600509;28;20028;-86
2024/01/19 12:04:08;;;;;;;15.27;10.48;;;;;;;;;;10628148;28;20036;-85
2024/01/19 12:09:13;;;;;;;23.17;15.68;;;;;;;;;;10588670;28;20032;-82
2024/01/19 12:14:14;;;;;;;29.10;19.20;;;;;;;;;;10593702;28;20111;-82
2024/01/19 12:19:16;;;;;;;18.90;12.32;;;;;;;;;;10585372;28;20032;-81
2024/01/19 12:24:17;;;;;;;;;;;;;;;;;;10608174;28;20110;-81
2024/01/19 12:29:31;;;;;;;16.55;11.27;;;;;;;;;;10595985;28;19922;-81
2024/01/19 12:34:32;;;;;;;16.75;11.80;;;;;;;;;;10592860;28;20463;-82
2024/01/19 12:39:41;;;;;;;14.63;10.00;;;;;;;;;;10598135;28;20042;-81
2024/01/19 12:44:48;;;;;;;16.25;10.30;;;;;;;;;;10614353;28;20071;-82
2024/01/19 12:49:57;;;;;;;15.70;10.23;;;;;;;;;;10597461;28;20028;-82
2024/01/19 12:55:04;;;;;;;12.80;8.70;;;;;;;;;;10596790;28;20053;-83
2024/01/19 13:00:11;;;;;;;16.02;10.65;;;;;;;;;;10596364;28;20032;-82
2024/01/19 13:05:19;;;;;;;16.05;11.20;;;;;;;;;;10595878;28;20051;-82
2024/01/19 13:10:20;;;;;;;12.88;9.02;;;;;;;;;;10594506;28;20028;-82
2024/01/19 13:15:22;;;;;;;15.57;11.32;;;;;;;;;;10596132;28;20169;-83
2024/01/19 13:20:24;;;;;;;12.50;8.63;;;;;;;;;;10599469;28;20032;-82
2024/01/19 13:25:25;;;;;;;16.25;12.23;;;;;;;;;;10602557;28;20031;-83
2024/01/19 13:30:28;;;;;;;;;;;;;;;;;;10606977;28;20031;-82
2024/01/19 13:35:29;;;;;;;10.80;7.97;;;;;;;;;;10610501;28;19914;-82
2024/01/19 13:40:30;;;;;;;16.63;12.60;;;;;;;;;;10619458;28;20028;-81
2024/01/19 13:45:31;;;;;;;15.43;10.73;;;;;;;;;;10590618;28;20095;-82
2024/01/19 13:50:34;;;;;;;17.70;11.80;;;;;;;;;;10602014;28;20040;-81
2024/01/19 13:55:35;;;;;;;13.30;9.30;;;;;;;;;;10585171;28;20027;-81
2024/01/19 14:00:36;;;;;;;16.83;11.60;;;;;;;;;;10592112;28;20103;-82
2024/01/19 14:05:38;;;;;;;16.73;11.82;;;;;;;;;;10586337;28;20058;-81
2024/01/19 14:10:48;;;;;;;11.27;7.80;;;;;;;;;;10586177;28;20031;-81
2024/01/19 14:15:50;;;;;;;12.55;8.55;;;;;;;;;;10570189;28;20034;-81
2024/01/19 14:20:55;;;;;;;12.73;8.13;;;;;;;;;;10584514;28;20034;-81
2024/01/19 14:25:56;;;;;;;16.92;11.88;;;;;;;;;;10589735;28;20023;-81
2024/01/19 14:30:57;;;;;;;10.63;7.72;;;;;;;;;;10588824;28;20479;-84
2024/01/19 14:35:58;;;;;;;11.02;7.40;;;;;;;;;;10590351;28;20068;-83
2024/01/19 14:40:59;;;;;;;16.83;10.50;;;;;;;;;;10590745;28;20127;-83
2024/01/19 14:46:01;;;;;;;13.68;8.73;;;;;;;;;;10602892;28;20028;-82
2024/01/19 14:51:01;;;;;;;;;;;;;;;;;;10618765;28;20004;-81
2024/01/19 14:56:03;;;;;;;13.07;8.48;;;;;;;;;;10616033;28;20332;-82
2024/01/19 15:01:04;;;;;;;13.27;9.60;;;;;;;;;;10589407;28;20035;-82
2024/01/19 15:06:06;;;;;;;15.30;10.25;;;;;;;;;;10594276;28;20024;-81
2024/01/19 15:11:07;;;;;;;14.50;10.40;;;;;;;;;;10592917;28;20441;-81
2024/01/19 15:16:08;;;;;;;11.10;8.48;;;;;;;;;;10611072;28;20012;-84
2024/01/19 15:21:10;;;;;;;11.70;8.25;;;;;;;;;;10591241;28;20019;-83
2024/01/19 15:26:11;;;;;;;;;;;;;;;;;;10590636;28;20390;-81
2024/01/19 15:31:19;;;;;;;10.68;7.65;;;;;;;;;;10591668;28;19921;-83
2024/01/19 15:36:26;;;;;;;11.18;7.85;;;;;;;;;;10590738;28;20335;-82
2024/01/19 15:41:28;;;;;;;10.90;8.00;;;;;;;;;;10578083;28;20035;-82
2024/01/19 15:46:29;;;;;;;20.05;13.85;;;;;;;;;;10595484;28;20089;-82
2024/01/19 15:51:30;;;;;;;10.32;7.57;;;;;;;;;;10595874;28;20038;-81
2024/01/19 15:56:32;;;;;;;9.95;6.75;;;;;;;;;;10604218;28;20043;-84
2024/01/19 16:01:38;;;;;;;9.50;7.07;;;;;;;;;;10596370;28;20035;-84
2024/01/19 16:06:39;;;;;;;10.38;7.22;;;;;;;;;;10593619;28;20028;-82
2024/01/19 16:11:40;;;;;;;16.73;11.85;;;;;;;;;;10594245;28;20077;-82
2024/01/19 16:16:45;;;;;;;11.60;8.00;;;;;;;;;;10577156;28;20096;-81
2024/01/19 16:21:51;;;;;;;10.98;7.18;;;;;;;;;;10594925;28;20024;-82
2024/01/19 16:26:56;;;;;;;14.48;9.73;;;;;;;;;;10575890;28;20031;-81
2024/01/19 16:31:57;;;;;;;9.85;7.05;;;;;;;;;;10596912;28;20028;-82
2024/01/19 16:36:58;;;;;;;19.17;13.75;;;;;;;;;;10592474;28;20076;-82
2024/01/19 16:41:59;;;;;;;9.93;7.13;;;;;;;;;;10593618;28;20487;-82
2024/01/19 16:47:00;;;;;;;8.45;5.78;;;;;;;;;;10593565;28;20035;-82
2024/01/19 16:52:01;;;;;;;12.73;8.43;;;;;;;;;;10593683;28;20130;-82
2024/01/19 16:57:05;;;;;;;10.90;8.18;;;;;;;;;;10594139;28;20024;-85
2024/01/19 17:02:06;;;;;;;8.55;6.28;;;;;;;;;;10591993;28;20115;-83
2024/01/19 17:07:09;;;;;;;9.93;5.70;;;;;;;;;;10592353;28;20024;-82
2024/01/19 17:12:10;;;;;;;9.18;6.18;;;;;;;;;;10596082;28;20027;-82
2024/01/19 17:17:11;;;;;;;9.75;7.07;;;;;;;;;;10591723;28;20133;-82
2024/01/19 17:22:14;;;;;;;10.77;7.00;;;;;;;;;;10594278;28;20127;-84
2024/01/19 17:27:15;;;;;;;12.80;8.60;;;;;;;;;;10578562;28;20032;-87
2024/01/19 17:32:16;;;;;;;9.88;7.05;;;;;;;;;;10595229;28;20083;-86
2024/01/19 17:37:17;;;;;;;;;;;;;;;;;;10600139;28;20119;-86
2024/01/19 17:42:18;;;;;;;10.43;6.60;;;;;;;;;;10603870;28;19979;-85
2024/01/19 17:47:19;;;;;;;;;;;;;;;;;;10619869;28;20063;-85
2024/01/19 17:52:20;;;;;;;19.35;12.07;;;;;;;;;;10592044;28;19908;-84
2024/01/19 17:57:21;;;;;;;16.20;10.02;;;;;;;;;;10587011;28;20063;-83
2024/01/19 18:02:22;;;;;;;13.40;7.55;;;;;;;;;;10600160;28;20051;-83
2024/01/19 18:07:23;;;;;;;;;;;;;;;;;;10610693;27;20051;-83
2024/01/19 18:12:24;;;;;;;12.15;8.30;;;;;;;;;;10611512;28;19971;-85
2024/01/19 18:17:25;;;;;;;23.02;15.70;;;;;;;;;;10599537;28;20058;-85
2024/01/19 18:22:26;;;;;;;10.52;6.75;;;;;;;;;;10599777;28;20433;-85
2024/01/19 18:27:29;;;;;;;12.20;8.02;;;;;;;;;;10584350;28;20041;-85
2024/01/19 18:32:30;;;;;;;8.23;5.45;;;;;;;;;;10592774;28;20031;-85
2024/01/19 18:37:31;;;;;;;17.25;11.00;;;;;;;;;;10625816;28;20023;-84
2024/01/19 18:42:32;;;;;;;;;;;;;;;;;;10611518;28;20039;-85
2024/01/19 18:47:33;;;;;;;10.25;6.85;;;;;;;;;;10590993;28;19925;-85
2024/01/19 18:52:35;;;;;;;13.63;9.50;;;;;;;;;;10620931;22;20064;-79
2024/01/19 18:57:36;;;;;;;15.80;10.45;;;;;;;;;;10511353;28;20032;-80
2024/01/19 19:02:37;;;;;;;;;;;;;;;;;;10528415;28;20028;-80
2024/01/19 19:07:38;;;;;;;13.60;8.77;;;;;;;;;;10510717;28;19909;-81
2024/01/19 19:12:39;;;;;;;17.30;11.93;;;;;;;;;;10516779;28;20103;-81
2024/01/19 19:17:40;;;;;;;15.25;9.88;;;;;;;;;;10519852;28;20021;-80
2024/01/19 19:22:41;;;;;;;13.02;8.25;;;;;;;;;;10522929;28;20050;-82
2024/01/19 19:27:42;;;;;;;9.23;6.38;;;;;;;;;;10504547;28;20033;-81
2024/01/19 19:32:43;;;;;;;13.07;8.45;;;;;;;;;;10506568;28;20021;-81
2024/01/19 19:37:44;;;;;;;14.95;10.45;;;;;;;;;;10506904;28;20032;-81
2024/01/19 19:42:45;;;;;;;10.98;7.22;;;;;;;;;;10524347;28;20512;-81
2024/01/19 19:47:46;;;;;;;10.73;7.35;;;;;;;;;;10507676;28;20036;-81
2024/01/19 19:52:47;;;;;;;11.85;8.32;;;;;;;;;;10508822;28;20063;-83
2024/01/19 19:57:48;;;;;;;11.57;8.50;;;;;;;;;;10509123;28;20032;-81
2024/01/19 20:02:49;;;;;;;9.63;7.03;;;;;;;;;;10531742;28;20024;-81
2024/01/19 20:07:50;;;;;;;;;;;;;;;;;;10514433;28;20029;-83
